Friday, January 19, 2018, 10:37 AM EST
Back to Local

KTHV, York Airport

Location: Spring Grove, PA, United States Lat: 39.917
Local Time: 10:37 AM EST (15:37 GMT) Lon: -76.883
Time Zone: US/Eastern Elev: 478 ft

Show me the last for .
Show Decoded

2018-01-19 09:53 METAR KTHV 191453Z AUTO 24004KT 10SM CLR 01/M09 A3010 RMK AO2 SLP202 T00111094
                 53008 =
2018-01-19 08:53 METAR KTHV 191353Z AUTO 13004KT 10SM CLR M03/M07 A3009 RMK AO2 SLP198 T10281072
                 =
2018-01-19 07:53 METAR KTHV 191253Z AUTO 00000KT 10SM CLR M05/M09 A3008 RMK AO2 SLP194 T10501094
                 =
2018-01-19 06:53 METAR KTHV 191153Z AUTO 00000KT 10SM CLR M11/M12 A3008 RMK AO2 SLP195 T11061122
                 11078 21117 53005 =
2018-01-19 05:53 METAR KTHV 191053Z AUTO 00000KT 10SM CLR M11/M13 A3007 RMK AO2 SLP191 T11111133
                 =
2018-01-19 04:53 METAR KTHV 190953Z AUTO 00000KT 10SM CLR M12/M13 A3006 RMK AO2 SLP190 T11171128
                 =
2018-01-19 03:53 METAR KTHV 190853Z AUTO 00000KT 10SM CLR M09/M12 A3006 RMK AO2 SLP188 T10941122
                 53003 =
2018-01-19 02:53 METAR KTHV 190753Z AUTO 00000KT 10SM CLR M08/M12 A3005 RMK AO2 SLP186 T10781117
                 =
2018-01-19 01:53 METAR KTHV 190653Z AUTO 00000KT 10SM CLR M10/M12 A3005 RMK AO2 SLP183 T11001117
                 =
2018-01-19 00:53 METAR KTHV 190553Z AUTO 00000KT 9SM CLR M10/M12 A3005 RMK AO2 SLP185 T11001117
                 11022 21117 58012 =
2018-01-18 23:53 METAR KTHV 190453Z AUTO 00000KT 10SM CLR M11/M12 A3007 RMK AO2 SLP192 T11061122
                 400281161 =
2018-01-18 22:53 METAR KTHV 190353Z AUTO 00000KT 10SM CLR M11/M12 A3008 RMK AO2 SLP195 T11061122
                 =
2018-01-18 21:53 METAR KTHV 190253Z AUTO 00000KT 10SM CLR M10/M12 A3009 RMK AO2 SLP199 T11001117
                 53014 =
2018-01-18 20:53 METAR KTHV 190153Z AUTO 00000KT 10SM CLR M09/M11 A3007 RMK AO2 SLP194 T10891111
                 =
2018-01-18 19:53 METAR KTHV 190053Z AUTO 30003KT 10SM CLR M06/M11 A3006 RMK AO2 SLP190 T10611106
                 =
2018-01-18 18:53 METAR KTHV 182353Z AUTO 30004KT 10SM CLR M06/M10 A3004 RMK AO2 SLP186 T10561100
                 10028 21061 53018 =
2018-01-18 17:53 METAR KTHV 182253Z AUTO 00000KT 10SM CLR M03/M09 A3002 RMK AO2 SLP177 T10281094
                 =
2018-01-18 16:53 METAR KTHV 182153Z AUTO 29007KT 10SM CLR 02/M10 A3001 RMK AO2 SLP170 T00171100 =
2018-01-18 15:53 METAR KTHV 182053Z AUTO 28006KT 10SM CLR 03/M11 A2999 RMK AO2 SLP166 T00281111
                 55015 =
2018-01-18 14:53 METAR KTHV 181953Z AUTO 28008KT 10SM CLR 02/M11 A2998 RMK AO2 SLP163 T00221111 =
2018-01-18 13:53 METAR KTHV 181853Z AUTO 26007KT 10SM CLR 02/M12 A3001 RMK AO2 SLP172 T00171117 =
2018-01-18 12:53 METAR KTHV 181753Z AUTO 27008KT 10SM CLR 01/M12 A3004 RMK AO2 SLP181 T00061122
                 10006 21150 58027 =
2018-01-18 11:53 METAR KTHV 181653Z AUTO 27009KT 10SM CLR M01/M13 A3007 RMK AO2 SLP191 T10061128
                 =
2018-01-18 10:53 METAR KTHV 181553Z AUTO 26006KT 10SM CLR M03/M14 A3011 RMK AO2 SLP206 T10281139
                 =

Support USWX by starting your Amazon purchase here.